createdAt,value
2023-02-01T00:02:21.535Z,5.85
2023-02-01T00:04:48.381Z,5.78
2023-02-01T00:07:15.262Z,5.82
2023-02-01T00:09:42.085Z,5.82
2023-02-01T00:12:08.978Z,5.88
2023-02-01T00:14:39.444Z,5.92
2023-02-01T00:17:07.443Z,5.76
2023-02-01T00:19:35.219Z,5.64
2023-02-01T00:22:02.380Z,5.62
2023-02-01T00:24:29.332Z,5.58
2023-02-01T00:26:56.767Z,5.42
2023-02-01T00:29:23.688Z,5.35
2023-02-01T00:31:51.550Z,5.30
2023-02-01T00:34:18.880Z,5.27
2023-02-01T00:36:45.892Z,5.23
2023-02-01T00:39:13.063Z,5.28
2023-02-01T00:41:41.652Z,5.33
2023-02-01T00:44:08.630Z,5.37
2023-02-01T00:46:35.600Z,5.44
2023-02-01T00:49:02.698Z,5.43
2023-02-01T00:51:30.237Z,5.48
2023-02-01T00:53:57.483Z,5.50
2023-02-01T00:56:24.421Z,5.56
2023-02-01T00:58:51.489Z,5.61
2023-02-01T01:01:22.688Z,5.56
2023-02-01T01:03:54.703Z,5.61
2023-02-01T01:06:23.289Z,5.65
2023-02-01T01:08:52.109Z,5.73
2023-02-01T01:11:20.942Z,5.77
2023-02-01T01:13:48.608Z,5.86
2023-02-01T01:16:16.026Z,5.94
2023-02-01T01:18:43.233Z,5.95
2023-02-01T01:21:10.524Z,5.97
2023-02-01T01:23:37.941Z,6.00
2023-02-01T01:26:08.425Z,5.99
2023-02-01T01:28:35.616Z,6.05
2023-02-01T01:31:02.959Z,6.05
2023-02-01T01:33:30.014Z,6.11
2023-02-01T01:35:56.857Z,6.06
2023-02-01T01:38:23.619Z,6.09
2023-02-01T01:40:53.192Z,6.14
2023-02-01T01:43:22.091Z,6.09
2023-02-01T01:45:49.520Z,6.15
2023-02-01T01:48:16.593Z,6.11
2023-02-01T01:50:49.202Z,6.16
2023-02-01T01:53:18.895Z,6.15
2023-02-01T01:55:46.032Z,6.16
2023-02-01T01:58:14.441Z,6.19
2023-02-01T02:00:41.376Z,6.23
2023-02-01T02:03:12.652Z,6.22
2023-02-01T02:05:39.878Z,6.22
2023-02-01T02:08:06.682Z,6.16
2023-02-01T02:10:52.015Z,6.25
2023-02-01T02:13:18.941Z,6.35
2023-02-01T02:16:06.313Z,6.32
2023-02-01T02:18:46.075Z,6.20
2023-02-01T02:21:18.800Z,6.29
2023-02-01T02:23:54.416Z,6.28
2023-02-01T02:26:24.050Z,6.35
2023-02-01T02:28:56.778Z,6.37
2023-02-01T02:31:42.756Z,6.22
2023-02-01T02:34:28.003Z,6.26
2023-02-01T02:36:54.840Z,6.23
2023-02-01T02:39:32.398Z,6.26
2023-02-01T02:42:37.738Z,6.31
2023-02-01T02:45:29.260Z,6.28
2023-02-01T02:48:00.260Z,6.32
2023-02-01T02:50:49.061Z,6.35
2023-02-01T02:53:38.891Z,6.34
2023-02-01T02:56:25.802Z,6.33
2023-02-01T02:59:11.412Z,6.32
2023-02-01T03:01:57.964Z,6.27
2023-02-01T03:04:26.556Z,6.22
2023-02-01T03:06:53.644Z,6.20
2023-02-01T03:09:23.593Z,6.22
2023-02-01T03:12:10.275Z,6.18
2023-02-01T03:14:37.557Z,6.29
2023-02-01T03:17:09.510Z,6.31
2023-02-01T03:19:38.335Z,6.27
2023-02-01T03:22:09.050Z,6.29
2023-02-01T03:24:39.883Z,6.28
2023-02-01T03:27:10.865Z,6.31
2023-02-01T03:30:03.858Z,6.18
2023-02-01T03:32:50.798Z,6.20
2023-02-01T03:35:18.320Z,6.16
2023-02-01T03:37:45.341Z,6.19
2023-02-01T03:40:12.605Z,6.16
2023-02-01T03:42:41.524Z,6.11
2023-02-01T03:45:14.576Z,6.15
2023-02-01T03:47:43.427Z,6.13
2023-02-01T03:50:14.813Z,6.06
2023-02-01T03:52:57.174Z,5.93
2023-02-01T03:55:28.349Z,5.79
2023-02-01T03:57:58.162Z,5.56
2023-02-01T04:00:26.281Z,5.48
2023-02-01T04:02:53.560Z,5.40
2023-02-01T04:05:20.705Z,5.28
2023-02-01T04:07:47.611Z,5.00
2023-02-01T04:10:14.570Z,4.93
2023-02-01T04:12:41.494Z,4.88
2023-02-01T04:15:08.673Z,4.82
2023-02-01T04:17:35.448Z,4.88
2023-02-01T04:20:02.549Z,4.78
2023-02-01T04:22:31.290Z,4.73
2023-02-01T04:24:58.436Z,4.61
2023-02-01T04:27:28.331Z,4.50
2023-02-01T04:29:57.549Z,4.48
2023-02-01T04:32:25.220Z,4.44
2023-02-01T04:34:52.148Z,4.45
2023-02-01T04:37:18.911Z,4.47
2023-02-01T04:39:45.808Z,4.58
2023-02-01T04:42:12.634Z,4.57
2023-02-01T04:44:42.729Z,4.62
2023-02-01T04:47:10.559Z,4.63
2023-02-01T04:49:37.411Z,4.62
2023-02-01T04:52:04.302Z,4.65
2023-02-01T04:54:31.121Z,4.64
2023-02-01T04:56:57.976Z,4.63
2023-02-01T04:59:24.803Z,4.60
2023-02-01T05:01:52.052Z,4.52
2023-02-01T05:04:19.675Z,4.57
2023-02-01T05:06:46.846Z,4.50
2023-02-01T05:09:13.696Z,4.53
2023-02-01T05:11:59.061Z,4.53
2023-02-01T05:14:26.370Z,4.51
2023-02-01T05:16:53.225Z,4.55
2023-02-01T05:19:20.091Z,4.51
2023-02-01T05:21:47.140Z,4.49
2023-02-01T05:24:14.807Z,4.50
2023-02-01T05:26:41.932Z,4.46
2023-02-01T05:29:09.337Z,4.50
2023-02-01T05:31:36.766Z,4.48
2023-02-01T05:34:04.125Z,4.50
2023-02-01T05:36:31.274Z,4.50
2023-02-01T05:38:58.394Z,4.37
2023-02-01T05:41:25.639Z,4.35
2023-02-01T05:43:52.838Z,4.29
2023-02-01T05:46:19.641Z,4.15
2023-02-01T05:48:46.813Z,4.12
2023-02-01T05:51:13.921Z,4.01
2023-02-01T05:53:40.756Z,3.76
2023-02-01T05:56:07.832Z,3.57
2023-02-01T05:58:35.318Z,3.47
2023-02-01T06:01:02.853Z,3.38
2023-02-01T06:03:29.939Z,3.30
2023-02-01T06:05:56.838Z,3.17
2023-02-01T06:08:26.673Z,3.09
2023-02-01T06:11:04.267Z,3.09
2023-02-01T06:13:34.022Z,3.00
2023-02-01T06:16:02.313Z,2.82
2023-02-01T06:18:31.124Z,2.81
2023-02-01T06:20:58.627Z,2.62
2023-02-01T06:23:25.512Z,2.50
2023-02-01T06:25:53.406Z,2.37
2023-02-01T06:28:20.398Z,2.40
2023-02-01T06:30:47.271Z,2.28
2023-02-01T06:33:16.092Z,2.29
2023-02-01T06:35:44.875Z,2.28
2023-02-01T06:38:13.070Z,2.29
2023-02-01T06:40:40.495Z,2.21
2023-02-01T06:43:07.436Z,2.22
2023-02-01T06:45:34.284Z,2.24
2023-02-01T06:48:01.853Z,2.26
2023-02-01T06:50:28.913Z,2.28
2023-02-01T06:52:56.105Z,2.30
2023-02-01T06:55:23.163Z,2.28
2023-02-01T06:57:53.997Z,2.30
2023-02-01T07:00:24.360Z,2.34
2023-02-01T07:02:51.803Z,2.35
2023-02-01T07:08:51.265Z,2.52
2023-02-01T07:11:19.619Z,2.61
2023-02-01T07:13:46.444Z,2.68
2023-02-01T07:16:14.404Z,2.74
2023-02-01T07:18:41.313Z,2.82
2023-02-01T07:21:08.423Z,2.89
2023-02-01T07:23:35.620Z,2.92
2023-02-01T07:26:04.612Z,3.06
2023-02-01T07:28:46.812Z,3.14
2023-02-01T07:31:16.390Z,3.22
2023-02-01T07:33:43.463Z,3.28
2023-02-01T07:36:14.843Z,3.36
2023-02-01T07:38:41.750Z,3.41
2023-02-01T07:41:09.246Z,3.47
2023-02-01T07:43:36.820Z,3.54
2023-02-01T07:46:05.222Z,3.60
2023-02-01T07:48:32.954Z,3.73
2023-02-01T07:51:07.739Z,3.84
2023-02-01T07:53:35.041Z,3.91
2023-02-01T07:56:02.648Z,3.99
2023-02-01T07:58:29.665Z,4.05
2023-02-01T08:01:18.373Z,4.13
2023-02-01T08:03:45.413Z,4.24
2023-02-01T08:06:12.566Z,4.34
2023-02-01T08:08:39.407Z,4.36
2023-02-01T08:11:07.461Z,4.47
2023-02-01T08:13:34.699Z,4.52
2023-02-01T08:16:02.270Z,4.59
2023-02-01T08:18:29.460Z,4.60
2023-02-01T08:20:56.633Z,4.53
2023-02-01T08:23:23.627Z,4.56
2023-02-01T08:25:50.489Z,4.57
2023-02-01T08:28:17.667Z,4.58
2023-02-01T08:30:44.550Z,4.60
2023-02-01T08:33:11.972Z,4.56
2023-02-01T08:35:43.595Z,4.64
2023-02-01T08:38:10.982Z,4.66
2023-02-01T08:40:37.904Z,4.70
2023-02-01T08:43:04.759Z,4.79
2023-02-01T08:45:31.588Z,4.90
2023-02-01T08:47:58.817Z,4.93
2023-02-01T08:50:26.573Z,5.05
2023-02-01T08:52:54.219Z,5.10
2023-02-01T08:55:21.408Z,5.16
2023-02-01T08:57:48.553Z,5.26
2023-02-01T09:00:17.290Z,5.30
2023-02-01T09:02:44.457Z,5.36
2023-02-01T09:05:11.951Z,5.42
2023-02-01T09:07:38.827Z,5.56
2023-02-01T09:10:05.762Z,5.67
2023-02-01T09:12:34.114Z,5.69
2023-02-01T09:15:01.099Z,5.86
2023-02-01T09:19:56.396Z,5.89
2023-02-01T09:22:23.157Z,5.87
2023-02-01T09:24:50.010Z,5.84
2023-02-01T09:27:16.835Z,5.79
2023-02-01T09:29:43.680Z,5.81
2023-02-01T09:32:10.644Z,5.79
2023-02-01T09:34:37.562Z,5.76
2023-02-01T09:37:04.354Z,5.88
2023-02-01T09:39:31.235Z,5.90
2023-02-01T09:42:06.663Z,5.92
2023-02-01T09:44:48.663Z,6.02
2023-02-01T09:47:17.061Z,6.13
2023-02-01T09:49:51.540Z,6.15
2023-02-01T09:52:20.712Z,6.12
2023-02-01T09:55:13.492Z,6.11
2023-02-01T09:57:46.455Z,6.11
2023-02-01T10:00:27.777Z,6.09
2023-02-01T10:02:55.174Z,6.14
2023-02-01T10:05:30.987Z,6.11
2023-02-01T10:08:16.677Z,5.95
2023-02-01T10:10:50.808Z,6.00
2023-02-01T10:13:22.237Z,5.93
2023-02-01T10:15:49.702Z,6.09
2023-02-01T10:18:36.229Z,6.20
2023-02-01T10:21:15.249Z,6.35
2023-02-01T10:23:56.157Z,6.36
2023-02-01T10:26:25.659Z,6.41
2023-02-01T10:28:54.723Z,6.43
2023-02-01T10:31:23.918Z,6.55
2023-02-01T10:33:52.383Z,6.66
2023-02-01T10:36:34.411Z,6.74
2023-02-01T10:39:01.443Z,6.82
2023-02-01T10:41:32.208Z,6.95
2023-02-01T10:43:59.740Z,7.09
2023-02-01T10:46:26.983Z,7.18
2023-02-01T10:48:56.514Z,7.16
2023-02-01T10:51:31.691Z,7.30
2023-02-01T10:54:01.775Z,7.23
2023-02-01T10:56:29.387Z,7.20
2023-02-01T10:59:04.123Z,7.16
2023-02-01T11:01:41.544Z,7.20
2023-02-01T11:04:10.728Z,7.21
2023-02-01T11:06:41.917Z,7.20
2023-02-01T11:09:08.744Z,6.97
2023-02-01T11:12:04.751Z,6.72
2023-02-01T11:14:41.052Z,6.56
2023-02-01T11:17:13.852Z,6.41
2023-02-01T11:19:45.054Z,6.36
2023-02-01T11:22:12.923Z,6.38
2023-02-01T11:24:40.379Z,6.35
2023-02-01T11:27:18.774Z,6.34
2023-02-01T11:29:54.247Z,6.44
2023-02-01T11:32:21.745Z,6.45
2023-02-01T11:34:56.648Z,6.48
2023-02-01T11:37:35.321Z,6.36
2023-02-01T11:40:04.896Z,6.36
2023-02-01T11:42:32.117Z,6.33
2023-02-01T11:45:17.379Z,6.20
2023-02-01T11:47:44.665Z,6.00
2023-02-01T11:50:19.601Z,5.53
2023-02-01T11:52:55.390Z,5.17
2023-02-01T11:55:25.011Z,5.20
2023-02-01T11:58:12.285Z,5.30
2023-02-01T12:00:45.398Z,5.36
2023-02-01T12:03:30.968Z,5.48
2023-02-01T12:06:07.776Z,5.57
2023-02-01T12:08:47.076Z,5.70
2023-02-01T12:11:19.600Z,5.76
2023-02-01T12:14:01.405Z,5.85
2023-02-01T12:16:43.662Z,5.88
2023-02-01T12:19:19.889Z,5.81
2023-02-01T12:22:05.348Z,5.66
2023-02-01T12:24:34.903Z,5.48
2023-02-01T12:27:14.735Z,5.39
2023-02-01T12:30:00.218Z,4.82
2023-02-01T12:32:27.013Z,4.47
2023-02-01T12:34:54.104Z,4.55
2023-02-01T12:37:23.635Z,4.68
2023-02-01T12:40:08.890Z,4.78
2023-02-01T12:42:39.500Z,4.96
2023-02-01T12:45:15.812Z,5.04
2023-02-01T12:47:45.470Z,5.08
2023-02-01T12:50:34.035Z,5.09
2023-02-01T12:53:10.151Z,5.23
2023-02-01T12:55:39.448Z,5.33
2023-02-01T12:58:18.158Z,5.30
2023-02-01T13:00:47.047Z,5.29
2023-02-01T13:03:37.288Z,5.22
2023-02-01T13:06:25.527Z,5.11
2023-02-01T13:08:59.819Z,5.05
2023-02-01T13:11:31.661Z,4.96
2023-02-01T13:14:01.668Z,4.89
2023-02-01T13:16:31.407Z,4.78
2023-02-01T13:19:04.975Z,4.66
2023-02-01T13:21:34.387Z,4.52
2023-02-01T13:24:01.377Z,4.47
2023-02-01T13:26:28.210Z,4.35
2023-02-01T13:28:58.847Z,4.28
2023-02-01T13:31:45.847Z,4.19
2023-02-01T13:34:25.023Z,4.08
2023-02-01T13:36:51.837Z,3.96
2023-02-01T13:39:42.742Z,3.88
2023-02-01T13:42:23.891Z,3.78
2023-02-01T13:44:59.334Z,3.82
2023-02-01T13:47:31.320Z,3.82
2023-02-01T13:50:05.329Z,3.76
2023-02-01T13:52:38.238Z,3.74
2023-02-01T13:55:15.875Z,3.73
2023-02-01T13:57:44.735Z,3.74
2023-02-01T14:00:26.934Z,3.87
2023-02-01T14:02:56.545Z,4.11
2023-02-01T14:05:23.777Z,4.48
2023-02-01T14:08:06.076Z,4.96
2023-02-01T14:10:55.506Z,5.04
2023-02-01T14:13:36.699Z,4.76
2023-02-01T14:16:04.039Z,4.66
2023-02-01T14:18:47.439Z,4.70
2023-02-01T14:21:23.928Z,4.58
2023-02-01T14:23:53.986Z,4.53
2023-02-01T14:26:22.651Z,4.49
2023-02-01T14:28:58.501Z,4.56
2023-02-01T14:31:31.304Z,4.41
2023-02-01T14:34:00.258Z,4.23
2023-02-01T14:36:27.481Z,4.13
2023-02-01T14:38:54.627Z,4.13
2023-02-01T14:41:27.224Z,3.99
2023-02-01T14:44:03.398Z,3.95
2023-02-01T14:46:48.835Z,3.94
2023-02-01T14:49:16.543Z,3.84
2023-02-01T14:51:43.508Z,3.84
2023-02-01T14:54:13.632Z,3.85
2023-02-01T14:56:43.699Z,3.84
2023-02-01T14:59:14.185Z,3.84
2023-02-01T15:01:47.442Z,3.81
2023-02-01T15:04:19.238Z,3.83
2023-02-01T15:06:52.461Z,3.83
2023-02-01T15:09:35.681Z,3.83
2023-02-01T15:12:05.553Z,3.86
2023-02-01T15:14:33.935Z,3.78
2023-02-01T15:17:01.013Z,3.69
2023-02-01T15:19:28.638Z,3.62
2023-02-01T15:21:57.765Z,3.55
2023-02-01T15:24:26.484Z,3.49
2023-02-01T15:26:54.835Z,3.48
2023-02-01T15:29:23.510Z,3.56
2023-02-01T15:31:51.390Z,3.56
2023-02-01T15:34:19.151Z,3.55
2023-02-01T15:37:00.690Z,3.53
2023-02-01T15:39:31.899Z,3.55
2023-02-01T15:42:03.037Z,3.56
2023-02-01T15:44:29.843Z,3.53
2023-02-01T15:46:56.958Z,3.54
2023-02-01T15:49:26.899Z,3.53
2023-02-01T15:51:55.081Z,3.47
2023-02-01T15:54:31.928Z,3.49
2023-02-01T15:57:02.101Z,3.52
2023-02-01T15:59:40.151Z,3.55
2023-02-01T16:02:26.015Z,3.61
2023-02-01T16:04:55.009Z,3.74
2023-02-01T16:07:26.118Z,3.81
2023-02-01T16:09:55.733Z,3.84
2023-02-01T16:12:35.044Z,3.90
2023-02-01T16:15:02.236Z,3.94
2023-02-01T16:17:29.114Z,4.00
2023-02-01T16:19:56.413Z,3.93
2023-02-01T16:22:23.256Z,3.99
2023-02-01T16:24:50.141Z,4.07
2023-02-01T16:27:16.967Z,4.07
2023-02-01T16:29:43.956Z,4.13
2023-02-01T16:32:17.469Z,4.10
2023-02-01T16:34:44.329Z,4.14
2023-02-01T16:37:15.761Z,4.17
2023-02-01T16:39:42.535Z,4.17
2023-02-01T16:42:16.363Z,4.19
2023-02-01T16:44:43.636Z,4.16
2023-02-01T16:47:22.476Z,4.20
2023-02-01T16:49:50.562Z,4.20
2023-02-01T16:52:19.524Z,4.20
2023-02-01T16:54:46.410Z,4.18
2023-02-01T16:57:14.683Z,4.22
2023-02-01T16:59:41.929Z,4.23
2023-02-01T17:02:16.050Z,4.24
2023-02-01T17:04:43.527Z,4.23
2023-02-01T17:07:12.955Z,4.28
2023-02-01T17:09:40.558Z,4.27
2023-02-01T17:12:07.760Z,4.25
2023-02-01T17:14:38.347Z,4.26
2023-02-01T17:17:05.485Z,4.29
2023-02-01T17:19:33.054Z,4.31
2023-02-01T17:22:00.117Z,4.29
2023-02-01T17:24:42.486Z,4.29
2023-02-01T17:27:13.851Z,4.25
2023-02-01T17:29:42.285Z,4.24
2023-02-01T17:32:25.619Z,4.19
2023-02-01T17:34:52.621Z,4.17
2023-02-01T17:37:27.930Z,4.15
2023-02-01T17:39:55.052Z,4.19
2023-02-01T17:42:22.281Z,4.19
2023-02-01T17:44:50.065Z,4.20
2023-02-01T17:47:16.975Z,4.16
2023-02-01T17:49:43.823Z,4.28
2023-02-01T17:52:16.176Z,4.34
2023-02-01T17:54:43.136Z,4.35
2023-02-01T17:57:12.186Z,4.43
2023-02-01T17:59:39.013Z,4.43
2023-02-01T18:02:17.615Z,4.49
2023-02-01T18:04:44.522Z,4.52
2023-02-01T18:07:11.389Z,4.53
2023-02-01T18:09:38.500Z,4.63
2023-02-01T18:12:05.682Z,4.71
2023-02-01T18:14:33.712Z,4.73
2023-02-01T18:17:00.641Z,4.74
2023-02-01T18:19:27.847Z,4.78
2023-02-01T18:21:56.987Z,4.79
2023-02-01T18:24:24.049Z,4.89
2023-02-01T18:26:52.162Z,4.84
2023-02-01T18:29:19.523Z,4.78
2023-02-01T18:31:48.377Z,4.81
2023-02-01T18:34:21.371Z,4.85
2023-02-01T18:36:48.919Z,4.85
2023-02-01T18:39:15.819Z,4.77
2023-02-01T18:41:43.369Z,4.80
2023-02-01T18:44:16.410Z,4.80
2023-02-01T18:46:43.297Z,4.83
2023-02-01T18:49:12.358Z,4.80
2023-02-01T18:51:39.426Z,4.81
2023-02-01T18:54:06.293Z,4.85
2023-02-01T18:56:33.595Z,4.90
2023-02-01T18:59:00.576Z,4.95
2023-02-01T19:01:28.047Z,4.90
2023-02-01T19:03:59.798Z,4.90
2023-02-01T19:06:37.648Z,4.87
2023-02-01T19:09:04.579Z,4.79
2023-02-01T19:11:31.464Z,4.76
2023-02-01T19:13:58.311Z,4.72
2023-02-01T19:16:25.162Z,4.78
2023-02-01T19:18:52.279Z,4.78
2023-02-01T19:21:19.205Z,4.64
2023-02-01T19:23:46.373Z,4.68
2023-02-01T19:26:14.766Z,4.67
2023-02-01T19:28:41.954Z,4.66
2023-02-01T19:31:09.588Z,4.65
2023-02-01T19:33:36.531Z,4.70
2023-02-01T19:36:05.925Z,4.66
2023-02-01T19:38:33.808Z,4.64
2023-02-01T19:41:00.913Z,4.61
2023-02-01T19:43:28.093Z,4.63
2023-02-01T19:45:55.831Z,4.65
2023-02-01T19:48:22.866Z,4.64
2023-02-01T19:50:50.000Z,4.70
2023-02-01T19:53:16.837Z,4.72
2023-02-01T19:55:48.443Z,4.76
2023-02-01T19:58:15.619Z,4.83
2023-02-01T20:00:41.615Z,4.90
2023-02-01T20:03:08.652Z,4.90
2023-02-01T20:05:35.631Z,4.97
2023-02-01T20:08:02.848Z,5.01
2023-02-01T20:10:29.783Z,5.03
2023-02-01T20:12:56.896Z,4.97
2023-02-01T20:15:27.230Z,4.96
2023-02-01T20:17:54.160Z,4.97
2023-02-01T20:20:21.107Z,4.93
2023-02-01T20:22:47.926Z,4.84
2023-02-01T20:25:14.962Z,4.76
2023-02-01T20:27:42.609Z,4.77
2023-02-01T20:30:09.970Z,4.74
2023-02-01T20:32:36.880Z,4.73
2023-02-01T20:35:03.772Z,4.72
2023-02-01T20:37:30.925Z,4.65
2023-02-01T20:39:57.700Z,4.71
2023-02-01T20:42:24.559Z,4.83
2023-02-01T20:44:51.333Z,4.83
2023-02-01T20:47:18.297Z,4.90
2023-02-01T20:49:45.212Z,4.81
2023-02-01T20:52:12.124Z,4.62
2023-02-01T20:54:38.937Z,4.53
2023-02-01T20:57:05.999Z,4.36
2023-02-01T20:59:32.928Z,4.34
2023-02-01T21:01:59.786Z,4.31
2023-02-01T21:04:30.045Z,4.27
2023-02-01T21:07:00.246Z,4.29
2023-02-01T21:09:30.384Z,4.37
2023-02-01T21:11:57.236Z,4.41
2023-02-01T21:14:24.845Z,4.46
2023-02-01T21:16:51.805Z,4.42
2023-02-01T21:19:19.300Z,4.47
2023-02-01T21:21:46.130Z,4.54
2023-02-01T21:24:13.028Z,4.59
2023-02-01T21:26:42.975Z,4.67
2023-02-01T21:29:11.844Z,4.75
2023-02-01T21:31:39.205Z,4.80
2023-02-01T21:34:06.860Z,4.83
2023-02-01T21:36:37.288Z,4.85
2023-02-01T21:39:05.346Z,4.96
2023-02-01T21:41:53.406Z,5.02
2023-02-01T21:44:20.594Z,5.02
2023-02-01T21:46:47.795Z,5.07
2023-02-01T21:49:14.834Z,5.06
2023-02-01T21:51:42.475Z,5.09
2023-02-01T21:54:10.646Z,5.14
2023-02-01T21:56:38.359Z,5.15
2023-02-01T21:59:11.540Z,5.20
2023-02-01T22:01:39.648Z,5.23
2023-02-01T22:04:07.272Z,5.34
2023-02-01T22:06:46.308Z,5.47
2023-02-01T22:09:20.900Z,5.51
2023-02-01T22:11:48.142Z,5.54
2023-02-01T22:14:22.040Z,5.57
2023-02-01T22:16:49.524Z,5.63
2023-02-01T22:19:16.907Z,5.72
2023-02-01T22:21:45.814Z,5.76
2023-02-01T22:24:14.293Z,5.84
2023-02-01T22:26:42.354Z,5.91
2023-02-01T22:29:09.674Z,6.00
2023-02-01T22:31:36.686Z,6.08
2023-02-01T22:34:03.510Z,5.88
2023-02-01T22:36:30.339Z,5.59
2023-02-01T22:38:58.227Z,5.49
2023-02-01T22:41:25.090Z,5.40
2023-02-01T22:43:51.926Z,5.35
2023-02-01T22:46:22.683Z,5.24
2023-02-01T22:48:49.465Z,5.24
2023-02-01T22:51:17.997Z,5.23
2023-02-01T22:53:44.844Z,5.22
2023-02-01T22:56:12.593Z,5.25
2023-02-01T22:58:39.938Z,5.26
2023-02-01T23:01:10.256Z,5.28
2023-02-01T23:03:37.541Z,5.35
2023-02-01T23:06:05.303Z,5.32
2023-02-01T23:08:33.663Z,5.34
2023-02-01T23:11:01.561Z,5.25
2023-02-01T23:13:28.375Z,5.24
2023-02-01T23:15:55.235Z,5.20
2023-02-01T23:18:22.091Z,5.18
2023-02-01T23:20:48.880Z,5.13
2023-02-01T23:23:15.811Z,5.14
2023-02-01T23:25:42.669Z,5.10
2023-02-01T23:28:09.473Z,5.11
2023-02-01T23:30:36.279Z,5.10
2023-02-01T23:33:03.415Z,5.12
2023-02-01T23:35:30.201Z,5.15
2023-02-01T23:37:56.970Z,5.11
2023-02-01T23:40:23.829Z,5.11
2023-02-01T23:43:10.706Z,5.11
2023-02-01T23:45:37.886Z,5.09
2023-02-01T23:48:05.179Z,5.13
2023-02-01T23:50:32.014Z,5.14
2023-02-01T23:52:59.114Z,5.21
2023-02-01T23:55:26.176Z,5.24
2023-02-01T23:57:53.045Z,5.31
